createdAt,value
2018-04-07T00:02:36.840Z,72.52
2018-04-07T00:05:40.163Z,72.46
2018-04-07T00:08:43.674Z,72.73
2018-04-07T00:11:46.979Z,72.82
2018-04-07T00:14:50.302Z,72.55
2018-04-07T00:17:53.603Z,72.62
2018-04-07T00:20:56.920Z,72.64
2018-04-07T00:24:00.239Z,72.51
2018-04-07T00:27:04.303Z,72.60
2018-04-07T00:30:07.623Z,72.67
2018-04-07T00:33:10.919Z,72.53
2018-04-07T00:36:14.233Z,72.89
2018-04-07T00:39:17.547Z,72.93
2018-04-07T00:42:20.851Z,72.75
2018-04-07T00:45:24.167Z,72.86
2018-04-07T00:48:27.472Z,73.01
2018-04-07T00:51:30.787Z,72.81
2018-04-07T00:54:34.107Z,72.77
2018-04-07T00:57:37.419Z,72.80
2018-04-07T01:00:41.484Z,72.58
2018-04-07T01:03:44.802Z,72.45
2018-04-07T01:06:48.097Z,72.70
2018-04-07T01:09:51.414Z,72.51
2018-04-07T01:12:55.482Z,72.56
2018-04-07T01:15:58.794Z,72.59
2018-04-07T01:19:02.118Z,72.39
2018-04-07T01:22:06.182Z,72.07
2018-04-07T01:25:09.510Z,72.17
2018-04-07T01:28:12.814Z,71.97
2018-04-07T01:31:16.129Z,71.71
2018-04-07T01:34:20.203Z,71.74
2018-04-07T01:37:24.369Z,71.32
2018-04-07T01:40:27.679Z,71.46
2018-04-07T01:43:30.993Z,71.30
2018-04-07T01:46:34.326Z,71.16
2018-04-07T01:49:37.627Z,70.90
2018-04-07T01:52:40.958Z,70.75
2018-04-07T01:55:44.255Z,70.59
2018-04-07T01:58:47.578Z,70.80
2018-04-07T02:01:50.875Z,70.46
2018-04-07T02:04:54.194Z,70.32
2018-04-07T02:07:57.499Z,70.27
2018-04-07T02:11:00.819Z,70.31
2018-04-07T02:14:04.887Z,70.26
2018-04-07T02:17:08.198Z,70.26
2018-04-07T02:20:11.498Z,70.15
2018-04-07T02:23:14.814Z,69.91
2018-04-07T02:26:18.878Z,69.84
2018-04-07T02:29:22.199Z,70.15
2018-04-07T02:32:25.509Z,69.98
2018-04-07T02:35:28.831Z,69.95
2018-04-07T02:38:32.167Z,70.25
2018-04-07T02:41:35.466Z,70.17
2018-04-07T02:44:38.783Z,70.19
2018-04-07T02:47:42.091Z,70.62
2018-04-07T02:50:45.428Z,70.55
2018-04-07T02:53:48.739Z,70.44
2018-04-07T02:56:52.054Z,70.35
2018-04-07T02:59:55.347Z,70.47
2018-04-07T03:02:58.668Z,70.52
2018-04-07T03:06:02.008Z,70.58
2018-04-07T03:09:05.349Z,70.75
2018-04-07T03:12:08.687Z,70.84
2018-04-07T03:15:12.743Z,70.65
2018-04-07T03:18:16.058Z,70.79
2018-04-07T03:21:19.367Z,70.52
2018-04-07T03:24:22.686Z,70.45
2018-04-07T03:27:25.987Z,70.46
2018-04-07T03:30:30.068Z,70.28
2018-04-07T03:33:33.371Z,69.97
2018-04-07T03:36:36.703Z,69.98
2018-04-07T03:39:40.793Z,70.16
2018-04-07T03:42:44.146Z,69.74
2018-04-07T03:45:47.446Z,69.51
2018-04-07T03:48:50.766Z,69.49
2018-04-07T03:51:54.086Z,69.59
2018-04-07T03:54:57.416Z,69.67
2018-04-07T03:58:00.715Z,69.25
2018-04-07T04:01:04.030Z,69.47
2018-04-07T04:04:07.354Z,69.27
2018-04-07T04:07:10.649Z,69.18
2018-04-07T04:10:13.958Z,69.46
2018-04-07T04:13:17.986Z,69.31
2018-04-07T04:16:22.064Z,68.89
2018-04-07T04:19:25.383Z,68.70
2018-04-07T04:22:28.707Z,68.79
2018-04-07T04:25:32.002Z,68.97
2018-04-07T04:28:35.314Z,68.51
2018-04-07T04:31:38.610Z,68.41
2018-04-07T04:34:41.922Z,68.11
2018-04-07T04:37:45.254Z,67.41
2018-04-07T04:40:48.551Z,66.93
2018-04-07T04:43:51.870Z,67.05
2018-04-07T04:46:55.946Z,66.63
2018-04-07T04:49:59.238Z,66.60
2018-04-07T04:53:02.554Z,66.52
2018-04-07T04:56:05.867Z,66.28
2018-04-07T04:59:09.168Z,66.48
2018-04-07T05:02:13.243Z,66.49
2018-04-07T05:05:16.542Z,66.70
2018-04-07T05:08:19.853Z,66.81
2018-04-07T05:11:23.164Z,67.08
2018-04-07T05:14:27.239Z,67.34
2018-04-07T05:17:30.559Z,67.43
2018-04-07T05:20:33.878Z,67.44
2018-04-07T05:23:37.947Z,67.35
2018-04-07T05:26:41.263Z,67.59
2018-04-07T05:29:44.562Z,66.92
2018-04-07T05:32:48.692Z,67.42
2018-04-07T05:35:52.795Z,67.75
2018-04-07T05:38:56.097Z,67.41
2018-04-07T05:42:00.187Z,67.57
2018-04-07T05:45:03.491Z,67.54
2018-04-07T05:48:06.817Z,67.20
2018-04-07T05:51:10.127Z,67.19
2018-04-07T05:54:13.451Z,67.68
2018-04-07T05:57:16.748Z,66.77
2018-04-07T06:00:20.063Z,67.19
2018-04-07T06:03:23.395Z,66.37
2018-04-07T06:06:27.466Z,66.46
2018-04-07T06:09:30.778Z,66.03
2018-04-07T06:12:34.095Z,65.77
2018-04-07T06:15:37.390Z,66.14
2018-04-07T06:18:40.701Z,65.34
2018-04-07T06:21:44.779Z,64.87
2018-04-07T06:24:48.091Z,65.02
2018-04-07T06:27:51.386Z,65.23
2018-04-07T06:30:54.703Z,64.29
2018-04-07T06:33:58.777Z,64.45
2018-04-07T06:37:02.110Z,63.20
2018-04-07T06:40:06.166Z,61.87
2018-04-07T06:43:09.478Z,62.36
2018-04-07T06:46:12.777Z,62.37
2018-04-07T06:49:16.095Z,61.76
2018-04-07T06:52:19.395Z,61.70
2018-04-07T06:55:22.720Z,61.33
2018-04-07T06:58:26.018Z,61.19
2018-04-07T07:01:29.318Z,59.02
2018-04-07T07:04:32.614Z,58.89
2018-04-07T07:07:35.924Z,58.57
2018-04-07T07:10:39.255Z,57.83
2018-04-07T07:13:42.563Z,58.23
2018-04-07T07:16:45.879Z,57.33
2018-04-07T07:19:49.939Z,57.56
2018-04-07T07:22:53.264Z,57.19
2018-04-07T07:25:56.562Z,56.68
2018-04-07T07:28:59.875Z,57.42
2018-04-07T07:32:03.172Z,57.46
2018-04-07T07:35:06.499Z,56.66
2018-04-07T07:38:09.806Z,54.79
2018-04-07T07:41:13.123Z,55.05
2018-04-07T07:44:16.442Z,55.32
2018-04-07T07:47:19.747Z,54.32
2018-04-07T07:50:23.091Z,53.17
2018-04-07T07:53:26.390Z,52.73
2018-04-07T07:56:29.712Z,52.25
2018-04-07T07:59:33.006Z,53.21
2018-04-07T08:02:36.322Z,52.00
2018-04-07T08:05:39.624Z,50.48
2018-04-07T08:08:42.951Z,49.94
2018-04-07T08:11:47.038Z,51.25
2018-04-07T08:14:50.350Z,51.93
2018-04-07T08:17:54.462Z,51.59
2018-04-07T08:20:58.551Z,50.75
2018-04-07T08:24:01.886Z,50.97
2018-04-07T08:27:05.969Z,52.05
2018-04-07T08:30:09.282Z,50.44
2018-04-07T08:33:13.370Z,49.12
2018-04-07T08:36:16.690Z,50.47
2018-04-07T08:39:19.999Z,49.50
2018-04-07T08:42:24.084Z,50.27
2018-04-07T08:45:27.384Z,49.44
2018-04-07T08:48:30.703Z,49.91
2018-04-07T08:51:34.799Z,48.34
2018-04-07T08:54:38.100Z,48.08
2018-04-07T08:57:41.422Z,47.73
2018-04-07T09:00:45.491Z,49.07
2018-04-07T09:03:48.826Z,49.08
2018-04-07T09:06:52.889Z,48.84
2018-04-07T09:09:56.206Z,48.51
2018-04-07T09:12:59.514Z,47.58
2018-04-07T09:16:02.870Z,47.89
2018-04-07T09:19:06.166Z,46.87
2018-04-07T09:22:09.480Z,46.89
2018-04-07T09:25:12.782Z,46.81
2018-04-07T09:28:16.108Z,46.99
2018-04-07T09:31:26.162Z,48.12
2018-04-07T09:34:30.263Z,46.21
2018-04-07T09:37:33.570Z,47.16
2018-04-07T09:40:36.892Z,46.40
2018-04-07T09:43:40.233Z,45.64
2018-04-07T09:46:43.575Z,46.94
2018-04-07T09:49:47.644Z,46.25
2018-04-07T09:52:50.966Z,46.97
2018-04-07T09:55:54.286Z,47.33
2018-04-07T09:58:58.355Z,45.90
2018-04-07T10:02:01.678Z,46.08
2018-04-07T10:05:05.755Z,44.89
2018-04-07T10:08:09.070Z,45.64
2018-04-07T10:11:12.391Z,44.90
2018-04-07T10:14:16.500Z,45.33
2018-04-07T10:17:20.575Z,45.78
2018-04-07T10:20:23.902Z,45.72
2018-04-07T10:23:27.227Z,45.33
2018-04-07T10:26:31.298Z,43.83
2018-04-07T10:29:34.636Z,45.15
2018-04-07T10:32:38.707Z,46.05
2018-04-07T10:35:42.027Z,44.23
2018-04-07T10:38:45.334Z,43.34
2018-04-07T10:41:49.418Z,44.83
2018-04-07T10:44:52.736Z,43.05
2018-04-07T10:47:56.857Z,43.16
2018-04-07T10:51:00.220Z,43.83
2018-04-07T10:54:03.651Z,43.63
2018-04-07T10:57:07.729Z,44.10
2018-04-07T11:00:11.046Z,45.18
2018-04-07T11:03:14.374Z,45.83
2018-04-07T11:06:18.470Z,43.71
2018-04-07T11:09:21.766Z,43.30
2018-04-07T11:12:25.084Z,44.68
2018-04-07T11:15:29.154Z,43.96
2018-04-07T11:18:32.492Z,42.43
2018-04-07T11:21:36.568Z,41.90
2018-04-07T11:24:39.891Z,42.85
2018-04-07T11:27:43.987Z,41.27
2018-04-07T11:30:47.294Z,43.15
2018-04-07T11:33:50.618Z,42.78
2018-04-07T11:36:53.941Z,42.18
2018-04-07T11:39:57.275Z,42.08
2018-04-07T11:43:00.583Z,42.16
2018-04-07T11:46:03.925Z,41.14
2018-04-07T11:49:07.243Z,42.32
2018-04-07T11:52:10.577Z,41.08
2018-04-07T11:55:14.670Z,41.71
2018-04-07T11:58:18.008Z,40.93
2018-04-07T12:01:21.323Z,41.39
2018-04-07T12:04:24.651Z,40.18
2018-04-07T12:07:27.971Z,40.80
2018-04-07T12:10:32.077Z,41.21
2018-04-07T12:13:35.388Z,43.09
2018-04-07T12:16:39.495Z,41.32
2018-04-07T12:19:42.806Z,41.24
2018-04-07T12:22:46.130Z,42.40
2018-04-07T12:25:49.434Z,42.98
2018-04-07T12:28:52.778Z,42.33
2018-04-07T12:31:56.078Z,42.70
2018-04-07T12:34:59.411Z,42.53
2018-04-07T12:38:02.731Z,44.06
2018-04-07T12:41:06.050Z,42.43
2018-04-07T12:44:09.380Z,43.57
2018-04-07T12:47:12.698Z,42.79
2018-04-07T12:50:16.019Z,42.54
2018-04-07T12:53:19.343Z,42.79
2018-04-07T12:56:22.669Z,41.96
2018-04-07T12:59:26.738Z,40.95
2018-04-07T13:02:30.067Z,42.93
2018-04-07T13:05:34.146Z,43.66
2018-04-07T13:08:37.475Z,42.49
2018-04-07T13:11:40.782Z,41.44
2018-04-07T13:14:44.873Z,42.36
2018-04-07T13:17:48.197Z,43.04
2018-04-07T13:20:52.295Z,40.47
2018-04-07T13:23:55.623Z,41.79
2018-04-07T13:26:58.957Z,42.21
2018-04-07T13:30:02.258Z,42.29
2018-04-07T13:33:05.587Z,43.12
2018-04-07T13:36:08.912Z,41.37
2018-04-07T13:39:12.239Z,41.99
2018-04-07T13:42:15.567Z,41.83
2018-04-07T13:45:18.882Z,41.23
2018-04-07T13:48:22.967Z,40.38
2018-04-07T13:51:26.274Z,40.85
2018-04-07T13:54:29.598Z,41.65
2018-04-07T13:57:33.670Z,42.18
2018-04-07T14:00:36.996Z,39.22
2018-04-07T14:03:41.083Z,40.22
2018-04-07T14:06:44.398Z,41.96
2018-04-07T14:09:47.726Z,42.63
2018-04-07T14:12:51.039Z,40.90
2018-04-07T14:15:54.360Z,40.11
2018-04-07T14:18:57.662Z,38.81
2018-04-07T14:22:00.986Z,39.33
2018-04-07T14:25:04.308Z,40.27
2018-04-07T14:28:07.619Z,40.07
2018-04-07T14:31:10.918Z,39.00
2018-04-07T14:34:14.243Z,39.55
2018-04-07T14:37:17.557Z,39.56
2018-04-07T14:40:20.878Z,40.10
2018-04-07T14:43:24.956Z,39.65
2018-04-07T14:46:28.287Z,39.22
2018-04-07T14:49:32.360Z,39.12
2018-04-07T14:52:35.678Z,40.57
2018-04-07T14:55:38.978Z,38.95
2018-04-07T14:58:42.327Z,39.24
2018-04-07T15:01:45.635Z,39.95
2018-04-07T15:04:48.955Z,40.03
2018-04-07T15:07:52.299Z,40.33
2018-04-07T15:10:55.603Z,40.40
2018-04-07T15:13:58.934Z,40.86
2018-04-07T15:17:02.240Z,41.89
2018-04-07T15:20:05.572Z,41.56
2018-04-07T15:23:09.647Z,41.16
2018-04-07T15:26:12.989Z,41.87
2018-04-07T15:29:16.295Z,40.91
2018-04-07T15:32:19.619Z,40.34
2018-04-07T15:35:22.928Z,40.56
2018-04-07T15:38:26.250Z,40.65
2018-04-07T15:41:29.562Z,41.79
2018-04-07T15:44:33.675Z,42.42
2018-04-07T15:47:36.994Z,42.15
2018-04-07T15:50:40.304Z,42.60
2018-04-07T15:53:43.646Z,42.76
2018-04-07T15:56:47.009Z,42.52
2018-04-07T15:59:50.295Z,42.17
2018-04-07T16:02:53.604Z,42.22
2018-04-07T16:05:56.926Z,42.61
2018-04-07T16:09:00.234Z,42.73
2018-04-07T16:12:03.564Z,42.76
2018-04-07T16:15:06.870Z,43.23
2018-04-07T16:18:10.207Z,42.04
2018-04-07T16:21:13.551Z,42.20
2018-04-07T16:24:16.855Z,41.83
2018-04-07T16:27:20.178Z,41.38
2018-04-07T16:30:23.487Z,40.19
2018-04-07T16:33:26.815Z,41.47
2018-04-07T16:36:30.902Z,42.71
2018-04-07T16:39:34.227Z,42.40
2018-04-07T16:42:38.327Z,42.27
2018-04-07T16:45:41.691Z,41.93
2018-04-07T16:48:45.004Z,42.08
2018-04-07T16:51:48.362Z,42.81
2018-04-07T16:54:51.671Z,42.82
2018-04-07T16:57:55.025Z,44.13
2018-04-07T17:00:59.143Z,44.87
2018-04-07T17:04:03.235Z,44.81
2018-04-07T17:07:06.547Z,45.87
2018-04-07T17:10:09.997Z,45.57
2018-04-07T17:13:13.327Z,46.32
2018-04-07T17:16:16.681Z,47.08
2018-04-07T17:19:20.019Z,47.83
2018-04-07T17:22:23.326Z,47.70
2018-04-07T17:25:26.647Z,47.81
2018-04-07T17:28:30.727Z,47.63
2018-04-07T17:31:34.064Z,47.48
2018-04-07T17:34:38.158Z,48.43
2018-04-07T17:37:42.235Z,48.73
2018-04-07T17:40:45.579Z,48.92
2018-04-07T17:43:49.655Z,49.28
2018-04-07T17:46:52.980Z,49.48
2018-04-07T17:49:56.306Z,50.09
2018-04-07T17:52:59.606Z,50.30
2018-04-07T17:56:02.947Z,50.94
2018-04-07T17:59:06.266Z,51.19
2018-04-07T18:02:09.591Z,51.44
2018-04-07T18:05:12.914Z,51.67
2018-04-07T18:08:16.226Z,51.95
2018-04-07T18:11:19.559Z,52.67
2018-04-07T18:14:22.886Z,53.10
2018-04-07T18:17:26.226Z,53.53
2018-04-07T18:20:29.539Z,54.07
2018-04-07T18:23:32.870Z,54.70
2018-04-07T18:26:36.203Z,55.03
2018-04-07T18:29:39.535Z,55.45
2018-04-07T18:32:42.852Z,56.06
2018-04-07T18:35:46.958Z,56.26
2018-04-07T18:38:51.046Z,56.59
2018-04-07T18:41:54.375Z,56.67
2018-04-07T18:44:58.471Z,57.12
2018-04-07T18:48:01.785Z,57.08
2018-04-07T18:51:05.886Z,57.19
2018-04-07T18:54:09.197Z,57.48
2018-04-07T18:57:13.299Z,57.45
2018-04-07T19:00:17.386Z,57.96
2018-04-07T19:03:20.722Z,58.44
2018-04-07T19:06:24.801Z,58.63
2018-04-07T19:09:28.130Z,58.93
2018-04-07T19:12:31.438Z,58.93
2018-04-07T19:15:34.768Z,58.86
2018-04-07T19:18:38.080Z,58.87
2018-04-07T19:21:41.415Z,58.90
2018-04-07T19:24:45.494Z,58.99
2018-04-07T19:27:48.819Z,59.21
2018-04-07T19:30:52.911Z,59.66
2018-04-07T19:33:56.242Z,59.95
2018-04-07T19:37:00.331Z,60.29
2018-04-07T19:40:03.643Z,60.78
2018-04-07T19:43:06.977Z,60.83
2018-04-07T19:46:10.283Z,61.45
2018-04-07T19:49:13.619Z,61.36
2018-04-07T19:52:16.930Z,61.31
2018-04-07T19:55:21.038Z,61.33
2018-04-07T19:58:25.118Z,61.22
2018-04-07T20:01:28.450Z,61.24
2018-04-07T20:04:32.530Z,60.98
2018-04-07T20:07:35.862Z,60.87
2018-04-07T20:10:39.958Z,60.78
2018-04-07T20:13:43.287Z,60.83
2018-04-07T20:16:47.403Z,60.98
2018-04-07T20:19:51.491Z,61.16
2018-04-07T20:22:54.822Z,61.56
2018-04-07T20:25:58.172Z,61.74
2018-04-07T20:29:01.481Z,62.09
2018-04-07T20:32:04.803Z,62.07
2018-04-07T20:35:08.900Z,61.85
2018-04-07T20:38:12.228Z,62.03
2018-04-07T20:41:15.542Z,62.42
2018-04-07T20:44:33.523Z,62.58
2018-04-07T20:47:36.839Z,62.88
2018-04-07T20:50:40.930Z,63.25
2018-04-07T20:53:44.250Z,63.34
2018-04-07T20:56:48.346Z,63.65
2018-04-07T20:59:51.660Z,63.85
2018-04-07T21:02:54.987Z,63.94
2018-04-07T21:05:58.318Z,64.21
2018-04-07T21:09:01.635Z,64.42
2018-04-07T21:12:04.966Z,64.33
2018-04-07T21:15:08.311Z,64.09
2018-04-07T21:18:11.632Z,64.08
2018-04-07T21:21:14.957Z,64.10
2018-04-07T21:24:18.306Z,64.09
2018-04-07T21:27:21.623Z,64.31
2018-04-07T21:30:24.970Z,64.21
2018-04-07T21:33:28.282Z,64.02
2018-04-07T21:36:31.614Z,64.13
2018-04-07T21:39:34.921Z,64.20
2018-04-07T21:42:38.250Z,64.21
2018-04-07T21:45:41.554Z,64.15
2018-04-07T21:48:44.879Z,64.12
2018-04-07T21:51:48.190Z,64.14
2018-04-07T21:54:51.527Z,64.26
2018-04-07T21:57:54.855Z,64.45
2018-04-07T22:00:58.178Z,64.50
2018-04-07T22:04:01.503Z,64.65
2018-04-07T22:07:04.818Z,64.88
2018-04-07T22:10:08.142Z,65.18
2018-04-07T22:13:11.457Z,65.34
2018-04-07T22:16:14.783Z,65.38
2018-04-07T22:19:18.882Z,65.30
2018-04-07T22:22:22.218Z,65.38
2018-04-07T22:25:25.549Z,65.45
2018-04-07T22:28:28.879Z,65.53
2018-04-07T22:31:32.186Z,65.67
2018-04-07T22:34:36.267Z,65.86
2018-04-07T22:37:39.566Z,66.01
2018-04-07T22:40:42.894Z,66.19
2018-04-07T22:43:46.986Z,66.42
2018-04-07T22:46:50.311Z,66.64
2018-04-07T22:49:54.401Z,66.75
2018-04-07T22:52:57.710Z,66.86
2018-04-07T22:56:01.815Z,67.02
2018-04-07T22:59:05.119Z,66.93
2018-04-07T23:02:08.442Z,66.75
2018-04-07T23:05:11.746Z,66.59
2018-04-07T23:08:15.066Z,66.55
2018-04-07T23:11:18.395Z,66.45
2018-04-07T23:14:21.700Z,66.38
2018-04-07T23:17:25.015Z,66.30
2018-04-07T23:20:29.091Z,66.29
2018-04-07T23:23:32.426Z,66.41
2018-04-07T23:26:36.499Z,66.65
2018-04-07T23:29:39.826Z,66.68
2018-04-07T23:32:43.894Z,66.75
2018-04-07T23:35:47.214Z,66.94
2018-04-07T23:38:50.519Z,67.10
2018-04-07T23:41:53.847Z,67.09
2018-04-07T23:44:57.178Z,67.11
2018-04-07T23:48:00.498Z,67.20
2018-04-07T23:51:03.826Z,67.28
2018-04-07T23:54:07.151Z,67.41
2018-04-07T23:57:10.469Z,67.36
